»·PEaware :: N416JK KAVQ-KBXK

N416JK :: KAVQ-KBXK

FLIGHT INFORMATION

Flight Status: Arrived
Operator: Privately registered:
United States
More flights under this callsign
Pilot: John K. (4202)
Aircraft: Unknown
(RV10)
More flights by this aircraft type
Origin: KAVQ Marana Northwest Regl
United States
Destination: KBXK Buckeye Mun
United States
More flights between these airports :: More routes between these airports
Route: ALMON V66 GBN
File this flight plan on PilotEdge
Remarks:
Altitude:
(Current/Filed)
8,000ft
Speed:
(Current/Filed)
140kts
Departed: 05-Oct-20 09:17 AM
Arrived: 05-Oct-20 10:07 AM
Distance/Time
Traveled:
96nm/0:50
Distance/Time
To Go:
Arrived

Flight Plot

Page will automatically refresh every two minutes.

Flight plan parsing failed; only flown route is shown


Map Options




Map Legend


Flown Route
Filed Route
Departure Airport
Arrival Airport
Navaid (VOR, NDB)
Fix

Horizontal Profiles

Position Reports

Time Latitude Longitude Heading Altitude Ground
Speed
05-Oct-20 09:03 32.405679 -111.218670 133 2023ft 0kts
05-Oct-20 09:04 32.405679 -111.218670 133 2023ft 0kts
05-Oct-20 09:05 32.405679 -111.218670 133 2023ft 0kts
05-Oct-20 09:06 32.405679 -111.218670 133 2023ft 0kts
05-Oct-20 09:07 32.405739 -111.218484 64 2024ft 5kts
05-Oct-20 09:08 32.407528 -111.216399 318 2025ft 13kts
05-Oct-20 09:09 32.410961 -111.220295 316 2021ft 24kts
05-Oct-20 09:10 32.416782 -111.226915 309 2012ft 20kts
05-Oct-20 09:11 32.416935 -111.227234 70 2012ft 0kts
05-Oct-20 09:12 32.416935 -111.227234 70 2012ft 0kts
05-Oct-20 09:13 32.416935 -111.227234 70 2012ft 0kts
05-Oct-20 09:14 32.417046 -111.226940 59 2012ft 0kts
05-Oct-20 09:15 32.417185 -111.226702 45 2012ft 9kts
05-Oct-20 09:16 32.404621 -111.210746 135 2505ft 117kts
05-Oct-20 09:17 32.382169 -111.227509 271 3799ft 130kts
05-Oct-20 09:18 32.383087 -111.272918 276 4598ft 138kts
05-Oct-20 09:19 32.383365 -111.311704 275 5289ft 132kts
05-Oct-20 09:20 32.383469 -111.354142 275 6082ft 125kts
05-Oct-20 09:21 32.383508 -111.394318 275 6874ft 119kts
05-Oct-20 09:22 32.383523 -111.432737 274 7667ft 114kts
05-Oct-20 09:23 32.383551 -111.472413 273 8007ft 137kts
05-Oct-20 09:24 32.394902 -111.516639 301 8001ft 149kts
05-Oct-20 09:25 32.415806 -111.560106 302 8000ft 153kts
05-Oct-20 09:26 32.436794 -111.602940 302 8082ft 151kts
05-Oct-20 09:27 32.458009 -111.646125 302 8082ft 152kts
05-Oct-20 09:28 32.477387 -111.685586 301 8082ft 152kts
05-Oct-20 09:29 32.498639 -111.728900 301 8082ft 152kts
05-Oct-20 09:30 32.519946 -111.772371 301 8057ft 153kts
05-Oct-20 09:31 32.538253 -111.809759 301 8054ft 151kts
05-Oct-20 09:32 32.559334 -111.852875 301 8054ft 151kts
05-Oct-20 09:33 32.580438 -111.896083 301 8054ft 151kts
05-Oct-20 09:34 32.601492 -111.939238 301 8054ft 151kts
05-Oct-20 09:35 32.622459 -111.982262 301 8073ft 150kts
05-Oct-20 09:36 32.643446 -112.025381 301 8073ft 151kts
05-Oct-20 09:37 32.664469 -112.068624 301 8073ft 151kts
05-Oct-20 09:38 32.685408 -112.111743 301 8073ft 151kts
05-Oct-20 09:39 32.706408 -112.155041 301 8073ft 151kts
05-Oct-20 09:40 32.727372 -112.198318 301 8073ft 151kts
05-Oct-20 09:41 32.748283 -112.241544 301 8073ft 151kts
05-Oct-20 09:42 32.769672 -112.285694 298 8000ft 155kts
05-Oct-20 09:43 32.790786 -112.329537 299 8000ft 153kts
05-Oct-20 09:44 32.812091 -112.373756 299 7999ft 154kts
05-Oct-20 09:45 32.833402 -112.418024 299 7999ft 154kts
05-Oct-20 09:46 32.854743 -112.462405 299 7999ft 154kts
05-Oct-20 09:47 32.876012 -112.506690 299 7999ft 154kts
05-Oct-20 09:48 32.897341 -112.551153 299 7999ft 154kts
05-Oct-20 09:49 32.918587 -112.595498 299 7999ft 154kts
05-Oct-20 09:50 32.939827 -112.639884 299 7999ft 154kts
05-Oct-20 09:51 32.969748 -112.673222 348 8000ft 162kts
05-Oct-20 09:52 33.011000 -112.675622 353 8000ft 163kts
05-Oct-20 09:53 33.042814 -112.676453 354 7812ft 124kts
05-Oct-20 09:54 33.071567 -112.677190 353 6777ft 89kts
05-Oct-20 09:55 33.101886 -112.678033 356 5813ft 132kts
05-Oct-20 09:56 33.139360 -112.678968 356 5104ft 134kts
05-Oct-20 09:57 33.176770 -112.679926 357 4405ft 135kts
05-Oct-20 09:58 33.219496 -112.681023 357 3712ft 167kts
05-Oct-20 09:59 33.264850 -112.682180 358 3132ft 158kts
05-Oct-20 10:00 33.307948 -112.683286 358 2747ft 151kts
05-Oct-20 10:01 33.348706 -112.684324 358 2484ft 125kts
05-Oct-20 10:02 33.376957 -112.687475 335 1919ft 97kts
05-Oct-20 10:03 33.397775 -112.693878 352 1705ft 91kts
05-Oct-20 10:04 33.430929 -112.696402 355 1561ft 132kts
05-Oct-20 10:05 33.440347 -112.686377 161 1255ft 67kts
05-Oct-20 10:06 33.426481 -112.685059 93 1016ft 14kts

Navigation Log

Ident Type
Flight plan parsing failed, navigation log unavailable